Time;durP1;ratioP1;P1;durP2;ratioP2;P2;SDS_P1;SDS_P2;PMS_P1;PMS_P2;Temp;Humidity;BMP_temperature;BMP_pressure;BME280_temperature;BME280_humidity;BME280_pressure;Samples;Min_cycle;Max_cycle;Signal;HPM_P1;HPM_P2
2022/05/15 00:02:14;;;;;;;123.57;118.73;;;9.80;99.90;;;;;;4978899;28;20819;-80
2022/05/15 00:04:41;;;;;;;118.00;113.00;;;9.80;99.90;;;;;;4984027;28;20455;-80
2022/05/15 00:07:08;;;;;;;138.07;132.87;;;9.80;99.90;;;;;;4998024;28;20450;-81
2022/05/15 00:09:36;;;;;;;172.17;165.70;;;9.70;99.90;;;;;;4993052;28;20479;-80
2022/05/15 00:12:03;;;;;;;189.20;182.30;;;9.70;99.90;;;;;;4978153;28;20451;-80
2022/05/15 00:14:33;;;;;;;216.40;208.50;;;9.60;99.90;;;;;;4980659;28;20522;-81
2022/05/15 00:17:00;;;;;;;215.27;207.60;;;9.50;99.90;;;;;;4997583;28;20487;-80
2022/05/15 00:19:28;;;;;;;217.40;209.57;;;9.40;99.90;;;;;;4995141;28;20474;-80
2022/05/15 00:21:54;;;;;;;281.70;270.23;;;9.40;99.90;;;;;;4978228;28;20458;-82
2022/05/15 00:24:22;;;;;;;314.80;303.17;;;9.30;99.90;;;;;;4987551;28;20459;-80
2022/05/15 00:26:49;;;;;;;390.53;374.90;;;9.40;99.90;;;;;;4989845;28;20979;-80
2022/05/15 00:29:16;;;;;;;344.60;331.53;;;9.40;99.90;;;;;;4992292;28;20993;-80
2022/05/15 00:31:44;;;;;;;353.27;339.30;;;9.40;99.90;;;;;;4996872;28;20477;-80
2022/05/15 00:34:11;;;;;;;376.53;362.10;;;9.30;99.90;;;;;;4988164;28;20529;-80
2022/05/15 00:36:38;;;;;;;371.57;356.93;;;9.30;99.90;;;;;;4977185;28;20482;-81
2022/05/15 00:39:05;;;;;;;373.77;359.47;;;9.30;99.90;;;;;;4984798;28;20493;-81
2022/05/15 00:41:32;;;;;;;348.77;336.00;;;9.20;99.90;;;;;;4997775;28;20539;-82
2022/05/15 00:44:00;;;;;;;341.87;328.87;;;9.10;99.90;;;;;;4991732;28;20450;-81
2022/05/15 00:46:29;;;;;;;380.70;366.40;;;9.10;99.90;;;;;;4978798;28;20458;-82
2022/05/15 00:48:59;;;;;;;426.47;409.53;;;9.00;99.90;;;;;;4983260;28;20458;-82
2022/05/15 00:51:29;;;;;;;451.00;431.07;;;9.00;99.90;;;;;;4997945;28;20462;-83
2022/05/15 00:54:01;;;;;;;550.00;524.73;;;9.00;99.90;;;;;;4991703;28;20450;-82
2022/05/15 00:56:32;;;;;;;656.70;622.73;;;9.00;99.90;;;;;;4977856;28;20459;-81
2022/05/15 00:59:07;;;;;;;706.23;667.10;;;9.00;99.90;;;;;;4977858;28;20459;-81
2022/05/15 01:01:34;;;;;;;659.43;625.27;;;9.10;99.90;;;;;;4978735;28;20521;-81
2022/05/15 01:04:02;;;;;;;648.77;619.17;;;9.10;99.90;;;;;;4998049;28;20458;-81
2022/05/15 01:06:30;;;;;;;688.10;654.90;;;9.00;99.90;;;;;;4997540;28;20458;-81
2022/05/15 01:08:57;;;;;;;692.57;659.70;;;9.00;99.90;;;;;;4977764;28;20458;-81
2022/05/15 01:11:24;;;;;;;676.00;643.10;;;9.10;99.90;;;;;;4977016;28;20470;-82
2022/05/15 01:13:53;;;;;;;596.33;568.53;;;8.90;99.90;;;;;;4995251;28;20460;-82
2022/05/15 01:16:22;;;;;;;637.80;607.60;;;8.90;99.90;;;;;;4994989;28;20450;-83
2022/05/15 01:18:49;;;;;;;708.70;671.90;;;8.80;99.90;;;;;;4995943;28;20818;-82
2022/05/15 01:21:25;;;;;;;755.57;713.47;;;8.70;99.90;;;;;;4990803;28;20455;-81
2022/05/15 01:23:52;;;;;;;732.07;692.17;;;8.80;99.90;;;;;;4977223;28;21011;-82
2022/05/15 01:26:19;;;;;;;753.80;710.93;;;8.70;99.90;;;;;;4982827;28;20454;-81
2022/05/15 01:28:46;;;;;;;761.43;717.60;;;8.70;99.90;;;;;;4997976;28;21087;-82
2022/05/15 01:31:14;;;;;;;737.17;695.77;;;8.80;99.90;;;;;;4993472;28;20451;-82
2022/05/15 01:33:41;;;;;;;678.37;643.97;;;8.80;99.90;;;;;;4977511;28;20462;-82
2022/05/15 01:36:08;;;;;;;726.90;688.47;;;8.70;99.90;;;;;;4979503;28;20486;-82
2022/05/15 01:38:36;;;;;;;691.07;655.87;;;8.70;99.90;;;;;;4995899;28;21032;-81
2022/05/15 01:41:03;;;;;;;727.57;688.60;;;8.70;99.90;;;;;;4977931;28;20477;-81
2022/05/15 01:43:30;;;;;;;760.17;716.70;;;8.60;99.90;;;;;;4977301;28;20459;-80
2022/05/15 01:45:58;;;;;;;786.00;740.73;;;8.70;99.90;;;;;;4977096;28;20485;-81
2022/05/15 01:48:25;;;;;;;770.53;727.00;;;8.60;99.90;;;;;;4984802;28;20462;-81
2022/05/15 01:50:52;;;;;;;770.37;728.37;;;8.60;99.90;;;;;;4996396;28;20490;-82
2022/05/15 01:53:19;;;;;;;784.80;741.17;;;8.60;99.90;;;;;;4986346;28;20455;-81
2022/05/15 01:55:47;;;;;;;815.73;767.83;;;8.50;99.90;;;;;;4976693;28;20462;-83
2022/05/15 01:58:14;;;;;;;860.30;806.50;;;8.50;99.90;;;;;;4984245;28;21020;-82
2022/05/15 02:00:40;;;;;;;843.83;790.73;;;8.50;99.90;;;;;;4995001;28;20484;-82
2022/05/15 02:03:07;;;;;;;819.57;768.27;;;8.50;99.90;;;;;;4995676;28;20454;-81
2022/05/15 02:05:34;;;;;;;828.13;777.03;;;8.60;99.90;;;;;;4995174;28;20830;-83
2022/05/15 02:08:01;;;;;;;863.60;809.70;;;8.30;99.90;;;;;;4980909;28;20451;-81
2022/05/15 02:10:28;;;;;;;854.37;803.07;;;8.30;99.90;;;;;;4982960;28;20476;-82
2022/05/15 02:12:57;;;;;;;827.13;776.33;;;8.30;99.90;;;;;;5000492;28;20493;-82
2022/05/15 02:15:23;;;;;;;813.33;765.00;;;8.30;99.90;;;;;;4993540;28;20840;-81
2022/05/15 02:17:50;;;;;;;845.27;792.47;;;8.30;99.90;;;;;;4980899;28;20846;-82
2022/05/15 02:20:17;;;;;;;816.00;767.40;;;8.30;99.90;;;;;;4981476;28;20480;-82
2022/05/15 02:22:44;;;;;;;804.80;756.33;;;8.20;99.90;;;;;;4991697;28;20883;-82
2022/05/15 02:25:13;;;;;;;819.60;770.80;;;8.20;99.90;;;;;;4996204;28;20467;-82
2022/05/15 02:27:40;;;;;;;826.67;777.13;;;8.10;99.90;;;;;;4980819;28;20821;-81
2022/05/15 02:30:10;;;;;;;841.57;788.87;;;8.20;99.90;;;;;;4982109;28;20483;-81
2022/05/15 02:32:37;;;;;;;853.60;799.97;;;8.20;99.90;;;;;;5000161;28;21002;-82
2022/05/15 02:35:05;;;;;;;821.60;772.60;;;8.20;99.90;;;;;;4997334;28;20457;-81
2022/05/15 02:37:32;;;;;;;798.03;752.70;;;8.00;99.90;;;;;;4980621;28;20562;-81
2022/05/15 02:39:58;;;;;;;799.23;755.00;;;8.00;99.90;;;;;;4980003;28;20474;-81
2022/05/15 02:42:26;;;;;;;805.23;758.47;;;8.00;99.90;;;;;;4999915;28;20951;-81
2022/05/15 02:44:52;;;;;;;795.40;751.43;;;8.00;99.90;;;;;;4988282;28;20450;-82
2022/05/15 02:47:20;;;;;;;827.30;780.00;;;7.90;99.90;;;;;;5000062;28;20460;-81
2022/05/15 02:52:31;;;;;;;822.13;773.93;;;8.30;99.90;;;;;;4981228;28;20526;-81
2022/05/15 02:54:58;;;;;;;844.47;794.10;;;8.10;99.90;;;;;;4992173;28;20481;-81
2022/05/15 02:57:25;;;;;;;838.03;788.27;;;8.20;99.90;;;;;;4980804;28;20478;-81
2022/05/15 02:59:51;;;;;;;799.53;753.20;;;8.10;99.90;;;;;;4979864;28;20471;-82
2022/05/15 03:02:19;;;;;;;709.20;672.43;;;8.10;99.90;;;;;;4996618;28;20454;-82
2022/05/15 03:04:47;;;;;;;729.87;692.80;;;7.90;99.90;;;;;;5000779;28;20828;-81
2022/05/15 03:07:14;;;;;;;739.60;701.67;;;7.90;99.90;;;;;;4998969;28;20544;-80
2022/05/15 03:09:40;;;;;;;771.27;728.87;;;7.90;99.90;;;;;;4998951;28;20480;-81
2022/05/15 03:12:08;;;;;;;849.93;800.60;;;7.90;99.90;;;;;;4986118;28;20952;-81
2022/05/15 03:14:35;;;;;;;886.60;832.90;;;8.00;99.90;;;;;;4979825;28;20482;-81
2022/05/15 03:17:01;;;;;;;853.80;803.00;;;8.00;99.90;;;;;;4990568;28;20947;-81
2022/05/15 03:19:29;;;;;;;852.63;798.77;;;8.00;99.90;;;;;;4998497;28;20485;-81
2022/05/15 03:21:56;;;;;;;827.67;777.40;;;8.00;99.90;;;;;;4989011;28;20458;-81
2022/05/15 03:24:23;;;;;;;794.33;748.37;;;8.00;99.90;;;;;;4979913;28;20458;-81
2022/05/15 03:26:50;;;;;;;830.43;781.53;;;8.00;99.90;;;;;;4981359;28;20455;-81
2022/05/15 03:29:19;;;;;;;842.03;791.90;;;7.90;99.90;;;;;;4979676;28;20478;-82
2022/05/15 03:31:46;;;;;;;831.37;781.90;;;7.90;99.90;;;;;;4988881;28;20951;-81
2022/05/15 03:34:14;;;;;;;811.93;764.00;;;8.00;99.90;;;;;;4999081;28;20454;-81
2022/05/15 03:36:44;;;;;;;816.83;768.93;;;7.80;99.90;;;;;;4990462;28;20450;-82
2022/05/15 03:39:11;;;;;;;816.87;769.83;;;7.80;99.90;;;;;;4979068;28;20491;-82
2022/05/15 03:41:38;;;;;;;829.40;781.70;;;7.80;99.90;;;;;;4979404;28;20454;-81
2022/05/15 03:44:06;;;;;;;834.20;786.07;;;7.70;99.90;;;;;;4979744;28;20487;-81
2022/05/15 03:46:34;;;;;;;871.50;818.40;;;7.70;99.90;;;;;;4992331;28;20454;-81
2022/05/15 03:49:01;;;;;;;876.07;819.43;;;7.70;99.90;;;;;;4998149;28;20537;-81
2022/05/15 03:51:28;;;;;;;864.67;811.20;;;7.70;99.90;;;;;;4986065;28;20451;-81
2022/05/15 03:53:56;;;;;;;821.37;773.63;;;7.60;99.90;;;;;;4979421;28;20466;-81
2022/05/15 03:59:04;;;;;;;818.57;772.67;;;7.50;99.90;;;;;;4996235;28;20474;-82
2022/05/15 04:01:31;;;;;;;833.47;785.53;;;7.50;99.90;;;;;;4988239;28;20451;-82
2022/05/15 04:03:59;;;;;;;854.97;805.17;;;7.50;99.90;;;;;;4979618;28;20462;-81
2022/05/15 04:06:26;;;;;;;846.27;797.27;;;7.50;99.90;;;;;;4979679;28;20459;-81
2022/05/15 04:08:52;;;;;;;838.90;791.30;;;7.60;99.90;;;;;;4978667;28;20451;-81
2022/05/15 04:11:20;;;;;;;853.60;803.30;;;7.60;99.90;;;;;;4980491;28;20451;-81
2022/05/15 04:13:47;;;;;;;857.40;806.20;;;7.60;99.90;;;;;;4980221;28;20960;-82
2022/05/15 04:16:14;;;;;;;864.17;811.17;;;7.70;99.90;;;;;;4994736;28;20458;-81
2022/05/15 04:18:41;;;;;;;881.63;827.43;;;8.20;99.90;;;;;;4996003;28;20540;-81
2022/05/15 04:21:08;;;;;;;888.40;823.83;;;8.00;99.90;;;;;;4985405;28;20450;-83
2022/05/15 04:23:35;;;;;;;904.70;836.20;;;8.30;99.90;;;;;;4984694;28;20925;-81
2022/05/15 04:26:01;;;;;;;873.63;805.83;;;8.80;99.90;;;;;;4987810;28;20450;-82
2022/05/15 04:28:29;;;;;;;874.63;804.60;;;9.10;99.90;;;;;;4994606;28;20974;-81
2022/05/15 04:30:56;;;;;;;874.27;805.17;;;9.30;99.90;;;;;;4982115;28;20470;-82
2022/05/15 04:33:23;;;;;;;887.03;820.57;;;9.50;99.90;;;;;;4977761;28;20824;-82
2022/05/15 04:35:50;;;;;;;894.03;829.27;;;9.50;99.90;;;;;;4967175;28;20463;-81
2022/05/15 04:38:16;;;;;;;893.33;834.43;;;9.60;99.90;;;;;;4994345;28;20474;-81
2022/05/15 04:40:43;;;;;;;899.63;841.03;;;9.60;99.90;;;;;;4991896;28;20482;-84
2022/05/15 04:43:10;;;;;;;887.63;829.20;;;9.60;99.90;;;;;;4987828;28;20458;-84
2022/05/15 04:45:38;;;;;;;886.37;829.23;;;9.60;99.90;;;;;;4984814;28;20839;-82
2022/05/15 04:48:06;;;;;;;885.90;829.20;;;9.80;99.90;;;;;;4979965;28;20520;-79
2022/05/15 04:50:33;;;;;;;879.50;824.40;;;9.80;99.90;;;;;;4978484;28;20578;-82
2022/05/15 04:52:59;;;;;;;864.50;813.70;;;9.90;99.90;;;;;;4979288;28;20463;-81
2022/05/15 04:55:26;;;;;;;880.43;824.90;;;9.80;99.90;;;;;;4981905;28;20451;-81
2022/05/15 04:57:53;;;;;;;849.43;798.40;;;10.10;99.90;;;;;;4996774;28;20474;-82
2022/05/15 05:00:20;;;;;;;827.97;779.37;;;10.10;99.90;;;;;;4979843;28;20984;-82
2022/05/15 05:02:48;;;;;;;823.07;775.13;;;10.10;99.90;;;;;;4995693;28;20460;-82
2022/05/15 05:05:16;;;;;;;806.53;760.03;;;10.30;99.90;;;;;;4982175;28;20460;-82
2022/05/15 05:07:43;;;;;;;792.03;748.33;;;10.40;99.90;;;;;;4980657;28;20978;-82
2022/05/15 05:10:12;;;;;;;782.33;739.43;;;10.60;99.90;;;;;;4987874;28;20497;-82
2022/05/15 05:12:38;;;;;;;754.60;715.67;;;10.60;99.90;;;;;;5000197;28;20462;-82
2022/05/15 05:15:07;;;;;;;729.10;692.20;;;10.80;99.90;;;;;;4992994;28;20458;-82
2022/05/15 05:17:34;;;;;;;689.20;656.97;;;10.80;99.90;;;;;;4980631;28;20451;-82
2022/05/15 05:20:02;;;;;;;669.30;638.73;;;10.90;99.90;;;;;;4986826;28;21013;-84
2022/05/15 05:22:28;;;;;;;701.57;668.20;;;11.00;99.90;;;;;;4994137;28;20832;-83
2022/05/15 05:24:55;;;;;;;773.17;728.97;;;11.20;99.90;;;;;;4990820;28;20472;-84
2022/05/15 05:27:23;;;;;;;527.30;503.90;;;11.60;99.90;;;;;;4974130;28;20470;-84
2022/05/15 05:29:50;;;;;;;48.67;45.07;;;12.10;99.90;;;;;;4979891;28;21014;-84
2022/05/15 05:32:17;;;;;;;21.60;19.40;;;12.60;99.90;;;;;;4982168;28;20530;-84
2022/05/15 05:34:44;;;;;;;20.60;13.37;;;13.30;99.90;;;;;;4973446;28;20451;-83
2022/05/15 05:37:14;;;;;;;17.73;14.33;;;13.80;99.90;;;;;;4986280;28;20450;-84
2022/05/15 05:39:41;;;;;;;15.63;12.30;;;14.40;99.90;;;;;;4982275;28;21059;-84
2022/05/15 05:42:08;;;;;;;14.93;11.60;;;14.90;98.60;;;;;;4977890;28;20843;-84
2022/05/15 05:44:35;;;;;;;14.27;12.73;;;15.50;95.40;;;;;;4978772;28;20458;-84
2022/05/15 05:47:02;;;;;;;17.30;10.37;;;16.00;89.10;;;;;;4977961;28;20851;-84
2022/05/15 05:49:29;;;;;;;13.73;10.60;;;16.30;82.70;;;;;;5002077;23;20530;-81
2022/05/15 05:51:56;;;;;;;15.90;10.73;;;16.70;78.30;;;;;;5014661;28;20458;-83
2022/05/15 05:54:24;;;;;;;14.40;10.17;;;16.90;76.70;;;;;;5013107;28;20454;-83
2022/05/15 05:56:51;;;;;;;13.80;10.37;;;17.50;71.90;;;;;;5004500;28;20453;-83
2022/05/15 05:59:18;;;;;;;11.17;9.30;;;17.90;70.40;;;;;;5002662;28;20826;-83
2022/05/15 06:01:44;;;;;;;14.43;9.47;;;18.40;60.40;;;;;;5000467;28;20468;-82
2022/05/15 06:06:56;;;;;;;9.03;7.27;;;19.30;55.10;;;;;;4999936;28;20873;-82
2022/05/15 06:09:24;;;;;;;13.73;7.87;;;19.60;52.80;;;;;;4998863;28;20456;-82
2022/05/15 06:11:51;;;;;;;16.20;9.03;;;19.80;51.10;;;;;;5007653;28;20453;-82
2022/05/15 06:14:17;;;;;;;12.00;7.93;;;19.90;47.60;;;;;;5001153;28;20457;-83
2022/05/15 06:16:44;;;;;;;9.50;7.50;;;20.00;45.90;;;;;;5001067;28;20845;-83
2022/05/15 06:19:11;;;;;;;11.40;7.30;;;20.00;40.30;;;;;;5001684;28;20491;-81
2022/05/15 06:21:38;;;;;;;15.40;7.73;;;20.10;44.40;;;;;;5001369;28;20482;-82
2022/05/15 06:24:05;;;;;;;10.83;7.13;;;20.30;38.70;;;;;;5002056;28;20462;-81
2022/05/15 06:26:33;;;;;;;10.10;7.60;;;20.50;39.10;;;;;;5002746;28;20768;-79
2022/05/15 06:29:00;;;;;;;11.90;6.67;;;20.80;36.00;;;;;;5002468;28;20462;-82
2022/05/15 06:31:26;;;;;;;10.30;6.40;;;20.60;31.50;;;;;;5001312;28;20478;-79
2022/05/15 06:33:53;;;;;;;10.70;8.00;;;20.50;35.80;;;;;;5001686;28;20463;-83
2022/05/15 06:36:20;;;;;;;9.40;6.57;;;20.80;36.00;;;;;;5003312;28;20997;-83
2022/05/15 06:38:47;;;;;;;10.10;6.43;;;20.80;35.50;;;;;;5002597;28;20479;-82
2022/05/15 06:41:17;;;;;;;10.83;6.80;;;20.80;36.00;;;;;;5005707;28;20484;-81
2022/05/15 06:43:47;;;;;;;11.87;6.30;;;20.90;32.40;;;;;;5006762;28;20879;-85
2022/05/15 06:46:14;;;;;;;14.67;7.03;;;20.70;32.10;;;;;;5006568;28;20452;-83
2022/05/15 06:48:44;;;;;;;10.77;6.40;;;20.70;32.70;;;;;;5006510;28;20524;-83
2022/05/15 06:51:14;;;;;;;9.97;6.00;;;20.60;31.60;;;;;;4996563;28;20519;-78
2022/05/15 06:53:41;;;;;;;12.17;6.93;;;20.60;32.60;;;;;;4997604;28;20463;-78
2022/05/15 06:58:53;;;;;;;10.70;7.30;;;20.50;31.90;;;;;;4997846;28;20510;-79
2022/05/15 07:01:20;;;;;;;14.30;6.40;;;20.30;32.40;;;;;;4997831;28;20478;-79
2022/05/15 07:03:47;;;;;;;11.97;6.93;;;20.40;32.30;;;;;;4998315;28;20466;-79
2022/05/15 07:06:15;;;;;;;11.57;7.90;;;20.30;32.00;;;;;;4997655;28;20455;-78
2022/05/15 07:08:42;;;;;;;11.20;7.60;;;20.70;29.50;;;;;;4996188;28;20447;-79
2022/05/15 07:11:12;;;;;;;11.30;6.60;;;20.60;29.30;;;;;;4997879;28;20499;-78
2022/05/15 07:13:39;;;;;;;11.77;6.80;;;20.80;28.40;;;;;;4997149;28;20453;-79
2022/05/15 07:16:08;;;;;;;9.90;6.50;;;20.90;29.40;;;;;;4994745;28;20935;-79
2022/05/15 07:18:36;;;;;;;10.57;6.67;;;21.10;26.50;;;;;;4995775;28;20526;-78
2022/05/15 07:21:03;;;;;;;12.43;6.60;;;21.30;27.30;;;;;;4996553;28;20486;-79
2022/05/15 07:23:30;;;;;;;13.00;6.90;;;21.60;26.60;;;;;;4996324;28;20463;-79
2022/05/15 07:25:57;;;;;;;14.93;7.27;;;21.70;25.10;;;;;;4997171;28;20464;-78
2022/05/15 07:28:24;;;;;;;11.37;6.13;;;21.60;26.00;;;;;;4995775;28;20467;-79
2022/05/15 07:30:51;;;;;;;14.30;5.67;;;21.60;25.00;;;;;;4998323;28;20879;-78
2022/05/15 07:33:20;;;;;;;10.13;5.57;;;21.70;25.20;;;;;;4996897;28;20448;-80
2022/05/15 07:35:47;;;;;;;13.20;6.50;;;21.80;25.70;;;;;;4997197;28;20462;-80
2022/05/15 07:38:14;;;;;;;10.87;6.00;;;21.80;24.70;;;;;;4997042;28;20467;-81
2022/05/15 07:40:41;;;;;;;8.00;4.60;;;21.50;23.90;;;;;;4993710;28;20480;-80
2022/05/15 07:43:09;;;;;;;10.27;5.90;;;21.60;25.00;;;;;;4996464;28;20459;-80
2022/05/15 07:45:36;;;;;;;11.10;5.93;;;21.50;25.00;;;;;;4996369;28;20455;-80
2022/05/15 07:48:04;;;;;;;16.07;6.20;;;21.40;25.10;;;;;;4995979;28;20948;-81
2022/05/15 07:50:32;;;;;;;9.60;4.70;;;21.30;25.80;;;;;;4995178;28;20481;-80
2022/05/15 07:52:59;;;;;;;8.40;4.90;;;21.40;24.00;;;;;;4997182;28;20488;-80
2022/05/15 07:55:26;;;;;;;9.23;5.47;;;21.20;25.00;;;;;;4996375;28;20467;-80
2022/05/15 07:57:52;;;;;;;15.13;5.50;;;21.20;23.80;;;;;;4996346;28;20464;-80
2022/05/15 08:00:20;;;;;;;10.83;4.83;;;21.30;23.60;;;;;;4995380;28;20488;-80
2022/05/15 08:02:47;;;;;;;13.10;5.90;;;21.40;24.90;;;;;;4994399;28;20819;-80
2022/05/15 08:08:02;;;;;;;7.73;4.50;;;22.10;21.20;;;;;;4976526;28;20445;-82
2022/05/15 08:10:30;;;;;;;8.47;4.50;;;22.50;20.20;;;;;;4975754;28;20501;-81
2022/05/15 08:12:57;;;;;;;13.03;4.13;;;22.80;17.50;;;;;;4994357;28;20968;-80
2022/05/15 08:15:24;;;;;;;13.93;4.47;;;23.20;16.80;;;;;;4994850;28;20471;-81
2022/05/15 08:17:50;;;;;;;10.00;4.43;;;23.30;14.60;;;;;;4994815;28;20452;-81
2022/05/15 08:25:47;;;;;;;7.50;3.87;;;24.40;13.90;;;;;;4978268;28;20521;-81
2022/05/15 08:28:15;;;;;;;7.77;3.77;;;24.00;9.30;;;;;;4994232;28;20461;-81
2022/05/15 08:30:42;;;;;;;7.80;4.30;;;23.90;8.70;;;;;;4994841;28;20470;-81
2022/05/15 08:33:11;;;;;;;7.43;4.20;;;24.00;8.20;;;;;;4995055;28;20943;-81
2022/05/15 08:35:38;;;;;;;7.30;3.77;;;24.30;7.00;;;;;;4995100;28;20485;-81
2022/05/15 08:38:06;;;;;;;8.10;3.40;;;25.00;6.50;;;;;;4994480;28;20947;-81
2022/05/15 08:40:42;;;;;;;11.23;4.33;;;25.00;5.70;;;;;;4994255;28;20486;-81
2022/05/15 08:43:10;;;;;;;8.90;4.10;;;25.00;5.70;;;;;;4995329;28;20457;-80
2022/05/15 08:45:53;;;;;;;8.70;3.60;;;25.20;3.30;;;;;;4994559;28;20457;-80
2022/05/15 08:48:20;;;;;;;9.90;3.80;;;25.30;2.80;;;;;;4994006;28;20457;-81
2022/05/15 08:50:51;;;;;;;6.90;3.87;;;25.30;4.10;;;;;;4994558;28;20481;-80
2022/05/15 08:53:24;;;;;;;9.60;4.10;;;25.30;3.90;;;;;;4994731;28;20458;-81
2022/05/15 08:55:55;;;;;;;8.20;3.80;;;25.70;3.60;;;;;;4995071;28;20831;-81
2022/05/15 08:58:28;;;;;;;8.40;3.83;;;26.20;1.00;;;;;;4994149;28;20874;-81
2022/05/15 09:00:55;;;;;;;10.10;4.03;;;26.60;1.00;;;;;;4993462;28;20489;-81
2022/05/15 09:03:25;;;;;;;9.43;4.00;;;26.60;1.00;;;;;;4993738;28;20493;-81
2022/05/15 09:05:56;;;;;;;8.70;3.93;;;26.80;1.00;;;;;;4993968;28;20450;-80
2022/05/15 09:09:05;;;;;;;11.20;3.87;;;26.60;1.00;;;;;;4994695;28;20521;-81
2022/05/15 09:11:54;;;;;;;9.10;4.90;;;26.80;1.00;;;;;;4992804;28;20448;-85
2022/05/15 09:14:38;;;;;;;11.80;4.23;;;27.10;1.00;;;;;;4999426;28;20450;-86
2022/05/15 09:17:16;;;;;;;8.00;3.60;;;27.20;1.00;;;;;;5000665;28;20442;-85
2022/05/15 09:19:43;;;;;;;8.47;3.50;;;27.00;1.00;;;;;;4996887;28;20474;-85
2022/05/15 09:22:13;;;;;;;10.27;4.13;;;27.30;1.00;;;;;;5002961;28;20464;-84
2022/05/15 09:24:45;;;;;;;9.90;3.63;;;28.20;1.00;;;;;;4994760;28;20461;-85
2022/05/15 09:27:19;;;;;;;10.50;4.10;;;28.30;1.00;;;;;;4992953;28;20479;-85
2022/05/15 09:29:53;;;;;;;10.40;3.60;;;28.90;1.00;;;;;;4995190;28;20903;-85
2022/05/15 09:32:36;;;;;;;10.03;4.20;;;28.80;1.00;;;;;;4993187;28;20456;-84
2022/05/15 09:35:04;;;;;;;11.50;3.53;;;28.80;1.00;;;;;;4992603;28;20454;-86
2022/05/15 09:40:23;;;;;;;7.63;3.10;;;29.10;1.00;;;;;;4995079;28;20579;-85
2022/05/15 09:45:54;;;;;;;9.23;3.50;;;29.60;1.00;;;;;;4988573;28;20499;-82
2022/05/15 09:48:24;;;;;;;7.07;3.23;;;29.50;1.00;;;;;;4994532;28;20585;-83
2022/05/15 09:50:59;;;;;;;9.87;4.17;;;29.10;1.00;;;;;;4988692;28;20498;-84
2022/05/15 09:53:33;;;;;;;13.80;3.70;;;29.30;1.00;;;;;;4975961;28;20458;-84
2022/05/15 09:56:02;;;;;;;10.87;4.40;;;29.50;1.00;;;;;;4976518;28;20429;-80
2022/05/15 09:58:40;;;;;;;8.43;3.50;;;29.20;1.00;;;;;;4974604;28;20442;-84
2022/05/15 10:01:24;;;;;;;13.03;5.23;;;29.10;1.00;;;;;;4991725;28;20452;-84
2022/05/15 10:03:53;;;;;;;9.60;3.37;;;29.10;1.00;;;;;;4996794;28;20432;-84
2022/05/15 10:06:23;;;;;;;10.00;3.40;;;29.40;1.00;;;;;;4994660;28;20453;-84
2022/05/15 10:09:07;;;;;;;9.00;3.13;;;29.80;1.00;;;;;;4995232;28;20450;-85
2022/05/15 10:11:36;;;;;;;6.07;3.00;;;30.30;1.00;;;;;;4986227;28;20478;-85
2022/05/15 10:14:06;;;;;;;10.13;2.80;;;30.90;1.00;;;;;;4991897;28;20456;-84
2022/05/15 10:16:42;;;;;;;8.73;2.90;;;30.80;1.00;;;;;;4997367;28;20447;-84
2022/05/15 10:19:12;;;;;;;10.73;3.83;;;31.20;1.00;;;;;;4994970;28;20453;-84
2022/05/15 10:21:42;;;;;;;7.10;3.37;;;31.70;1.00;;;;;;4991339;28;20451;-84
2022/05/15 10:24:13;;;;;;;8.33;3.07;;;30.80;1.00;;;;;;4993399;28;20454;-84
2022/05/15 10:26:58;;;;;;;9.63;3.60;;;31.20;1.00;;;;;;4988743;28;20524;-84
2022/05/15 10:29:37;;;;;;;10.30;4.00;;;31.10;1.00;;;;;;4995843;28;20433;-84
2022/05/15 10:32:11;;;;;;;6.97;3.33;;;30.70;1.00;;;;;;4997345;28;20455;-83
2022/05/15 10:34:38;;;;;;;9.60;2.70;;;30.90;1.00;;;;;;4996973;28;20450;-85
2022/05/15 10:37:18;;;;;;;6.93;3.70;;;31.30;1.00;;;;;;4997136;28;20952;-85
2022/05/15 10:40:04;;;;;;;9.60;4.17;;;31.50;1.00;;;;;;4976286;28;20486;-85
2022/05/15 10:42:42;;;;;;;7.43;2.77;;;31.40;1.00;;;;;;4982415;28;20508;-85
2022/05/15 10:45:19;;;;;;;9.57;3.63;;;31.60;1.00;;;;;;4996942;28;20820;-86
2022/05/15 10:47:58;;;;;;;6.40;3.00;;;32.20;1.00;;;;;;4996405;28;20951;-81
2022/05/15 10:50:32;;;;;;;7.07;2.83;;;32.40;1.00;;;;;;4996213;28;20832;-83
2022/05/15 10:59:14;;;;;;;9.07;2.53;;;33.00;1.00;;;;;;4998450;28;20428;-83
2022/05/15 11:01:51;;;;;;;8.20;2.63;;;33.20;1.00;;;;;;4978361;28;20466;-84
2022/05/15 11:04:32;;;;;;;7.03;3.03;;;32.90;1.00;;;;;;4991464;28;20453;-84
2022/05/15 11:07:03;;;;;;;6.77;2.60;;;33.00;1.00;;;;;;5001281;28;20420;-83
2022/05/15 11:09:36;;;;;;;9.07;2.80;;;33.10;1.00;;;;;;4999701;28;20442;-84
2022/05/15 11:12:23;;;;;;;9.77;3.10;;;33.60;1.00;;;;;;4998523;28;20457;-84
2022/05/15 11:15:01;;;;;;;9.93;2.93;;;31.80;1.00;;;;;;4997184;28;20530;-83
2022/05/15 11:17:36;;;;;;;7.63;3.03;;;32.20;1.00;;;;;;4997587;28;20434;-84
2022/05/15 11:20:10;;;;;;;6.73;2.17;;;32.90;1.00;;;;;;4996120;28;20466;-84
2022/05/15 11:22:44;;;;;;;8.70;3.40;;;33.60;1.00;;;;;;4999592;28;20458;-82
2022/05/15 11:25:18;;;;;;;6.97;2.53;;;33.90;1.00;;;;;;4988208;28;20487;-83
2022/05/15 11:27:48;;;;;;;6.10;2.20;;;35.10;1.00;;;;;;5002225;28;20792;-83
2022/05/15 11:30:21;;;;;;;6.40;2.20;;;33.70;1.00;;;;;;5025290;28;20487;-85
2022/05/15 11:33:03;;;;;;;9.70;2.90;;;33.50;1.00;;;;;;5007625;28;20561;-85
2022/05/15 11:35:34;;;;;;;8.43;2.80;;;33.10;1.00;;;;;;5007311;28;20826;-82
2022/05/15 11:38:09;;;;;;;5.87;2.57;;;33.40;1.00;;;;;;5002395;28;20462;-85
2022/05/15 11:40:39;;;;;;;8.60;1.90;;;33.70;1.00;;;;;;5006556;28;20468;-85
2022/05/15 11:43:43;;;;;;;6.63;2.03;;;34.50;1.00;;;;;;5008027;28;20457;-85
2022/05/15 11:46:11;;;;;;;10.17;2.47;;;34.60;1.00;;;;;;4997603;28;20436;-84
2022/05/15 11:48:58;;;;;;;6.73;2.83;;;34.70;1.00;;;;;;4995948;28;20508;-84
2022/05/15 11:51:32;;;;;;;5.13;2.00;;;34.30;1.00;;;;;;5011177;22;20472;-83
2022/05/15 11:54:02;;;;;;;5.17;2.10;;;34.20;1.00;;;;;;4980346;28;20464;-84
2022/05/15 11:56:37;;;;;;;7.13;2.70;;;34.90;1.00;;;;;;4980031;28;20477;-85
2022/05/15 11:59:08;;;;;;;5.90;2.10;;;34.30;1.00;;;;;;4979793;28;20454;-84
2022/05/15 12:01:48;;;;;;;6.47;2.53;;;35.40;1.00;;;;;;4979813;28;20478;-82
2022/05/15 12:04:40;;;;;;;5.10;2.10;;;34.60;1.00;;;;;;4980513;28;20549;-83
2022/05/15 12:07:34;;;;;;;8.60;2.30;;;34.00;1.00;;;;;;4980867;28;20455;-83
2022/05/15 12:10:01;;;;;;;8.27;2.20;;;33.80;1.00;;;;;;4978991;28;20457;-83
2022/05/15 12:12:52;;;;;;;5.67;2.07;;;33.90;1.00;;;;;;4978960;28;20468;-83
2022/05/15 12:15:38;;;;;;;6.43;1.97;;;34.90;1.00;;;;;;4978604;28;20459;-83
2022/05/15 12:18:19;;;;;;;6.07;2.37;;;34.80;1.00;;;;;;4969647;28;20499;-81
2022/05/15 12:20:51;;;;;;;5.53;2.30;;;34.40;1.00;;;;;;4978278;28;20824;-85
2022/05/15 12:23:20;;;;;;;5.40;2.00;;;33.80;1.00;;;;;;4978271;28;20429;-84
2022/05/15 12:25:56;;;;;;;6.40;1.90;;;35.10;1.00;;;;;;4978070;28;20433;-83
2022/05/15 12:31:22;;;;;;;4.97;1.77;;;36.60;1.00;;;;;;4980430;28;20529;-83
2022/05/15 12:33:50;;;;;;;7.40;2.50;;;35.50;1.00;;;;;;4980118;28;21049;-84
2022/05/15 12:36:28;;;;;;;5.63;1.90;;;35.30;1.00;;;;;;4978637;28;20450;-83
2022/05/15 12:38:58;;;;;;;4.83;2.17;;;35.40;1.00;;;;;;4978953;28;20433;-83
2022/05/15 12:41:28;;;;;;;6.07;1.97;;;35.10;1.00;;;;;;4979714;28;20486;-83
2022/05/15 12:43:56;;;;;;;6.90;1.93;;;35.30;1.00;;;;;;4979479;28;20454;-83
2022/05/15 12:46:24;;;;;;;6.03;1.80;;;35.50;1.00;;;;;;4979245;28;20868;-84
2022/05/15 12:48:51;;;;;;;7.93;2.10;;;35.60;1.00;;;;;;4976542;28;20436;-82
2022/05/15 12:51:26;;;;;;;8.23;2.20;;;36.20;1.00;;;;;;4963486;28;20491;-87
2022/05/15 12:53:54;;;;;;;7.03;2.60;;;35.70;1.00;;;;;;4973013;28;20565;-84
2022/05/15 12:56:25;;;;;;;6.73;2.10;;;35.90;1.00;;;;;;4977393;28;20492;-83
2022/05/15 12:58:56;;;;;;;6.03;2.23;;;35.60;1.00;;;;;;4977165;28;20454;-82
2022/05/15 13:01:26;;;;;;;5.23;1.97;;;36.80;1.00;;;;;;4977020;28;20500;-84
2022/05/15 13:03:57;;;;;;;6.03;1.87;;;35.80;1.00;;;;;;4976284;28;20429;-84
2022/05/15 13:06:32;;;;;;;9.03;2.17;;;35.70;1.00;;;;;;4978203;28;20440;-89
2022/05/15 13:09:00;;;;;;;7.57;1.90;;;36.20;1.00;;;;;;4977324;28;20595;-83
2022/05/15 13:11:40;;;;;;;5.40;2.00;;;35.70;1.00;;;;;;4977663;28;20570;-85
2022/05/15 13:14:15;;;;;;;8.57;2.13;;;36.80;1.00;;;;;;4979341;28;20454;-84
2022/05/15 13:16:46;;;;;;;9.17;2.60;;;37.40;1.00;;;;;;4977804;28;20453;-85
2022/05/15 13:19:14;;;;;;;5.83;1.90;;;37.80;1.00;;;;;;4976858;28;20438;-83
2022/05/15 13:21:46;;;;;;;5.50;2.03;;;37.50;1.00;;;;;;4976854;28;20466;-84
2022/05/15 13:24:16;;;;;;;6.50;2.07;;;36.90;1.00;;;;;;4977769;28;20975;-84